NCAR-RAP Real-Time Weather Data

Output produced by METARs form (17 January 2018  22:26 UTC)
found at http://weather.rap.ucar.edu/surface/
 
Conditions at: KSPG observed 17 January 2018  22:02 UTC
Temperature: 10.6°C (51°F)
Dewpoint: 7.2°C (45°F) [RH = 79%]
Pressure (altimeter): 30.27 inches Hg (1025.1 mb)
Winds: from the NNW (340 degrees) at 15 MPH (13 knots; 6.8 m/s)
gusting to 28 MPH (24 knots; 12.5 m/s)
Visibility: 10 or more miles (16+ km)
Ceiling: 1600 feet AGL
Clouds: broken clouds at 1600 feet AGL
overcast cloud deck at 3400 feet AGL
Present Weather: no significant weather observed at this time
KSPG 172202Z 34013G24KT 10SM BKN016 OVC034 11/07 A3027 RMK AO2 T01060072

Conditions at: KSPG observed 17 January 2018  21:53 UTC
Temperature: 10.6°C (51°F)
Dewpoint: 7.2°C (45°F) [RH = 79%]
Pressure (altimeter): 30.27 inches Hg (1025.1 mb)
[Sea-level pressure: 1024.8 mb]
Winds: from the N (360 degrees) at 17 MPH (15 knots; 7.8 m/s)
gusting to 28 MPH (24 knots; 12.5 m/s)
Visibility: 10 or more miles (16+ km)
Ceiling: 1400 feet AGL
Clouds: overcast cloud deck at 1400 feet AGL
Present Weather: no significant weather observed at this time
KSPG 172153Z 36015G24KT 10SM OVC014 11/07 A3027 RMK AO2 PK WND 34026/2058 SLP248 T01060072

Conditions at: KSPG observed 17 January 2018  21:38 UTC
Temperature: 10.6°C (51°F)
Dewpoint: 7.8°C (46°F) [RH = 83%]
Pressure (altimeter): 30.25 inches Hg (1024.5 mb)
Winds: from the N (350 degrees) at 20 MPH (17 knots; 8.8 m/s)
gusting to 26 MPH (23 knots; 12.0 m/s)
Visibility: 10 or more miles (16+ km)
Ceiling: 1300 feet AGL
Clouds: overcast cloud deck at 1300 feet AGL
Present Weather: no significant weather observed at this time
KSPG 172138Z 35017G23KT 10SM OVC013 11/08 A3025 RMK AO2 PK WND 34026/2058 T01060078

Conditions at: KSPG observed 17 January 2018  21:12 UTC
Temperature: 10.6°C (51°F)
Dewpoint: 7.2°C (45°F) [RH = 79%]
Pressure (altimeter): 30.26 inches Hg (1024.8 mb)
Winds: from the NNW (340 degrees) at 21 MPH (18 knots; 9.4 m/s)
gusting to 29 MPH (25 knots; 13.0 m/s)
Visibility: 10 or more miles (16+ km)
Ceiling: 1700 feet AGL
Clouds: broken clouds at 1700 feet AGL
overcast cloud deck at 3100 feet AGL
Present Weather: no significant weather observed at this time
KSPG 172112Z 34018G25KT 10SM BKN017 OVC031 11/07 A3026 RMK AO2 PK WND 34026/2058 T01060072

Conditions at: KSPG observed 17 January 2018  21:01 UTC
Temperature: 11.1°C (52°F)
Dewpoint: 6.7°C (44°F) [RH = 74%]
Pressure (altimeter): 30.25 inches Hg (1024.5 mb)
Winds: from the N (350 degrees) at 21 MPH (18 knots; 9.4 m/s)
gusting to 30 MPH (26 knots; 13.5 m/s)
Visibility: 10 or more miles (16+ km)
Ceiling: 3100 feet AGL
Clouds: scattered clouds at 1900 feet AGL
overcast cloud deck at 3100 feet AGL
Present Weather: no significant weather observed at this time
KSPG 172101Z 35018G26KT 10SM SCT019 OVC031 11/07 A3025 RMK AO2 PK WND 34026/2058 T01110067

Conditions at: KSPG observed 17 January 2018  20:53 UTC
Temperature: 11.1°C (52°F)
Dewpoint: 7.2°C (45°F) [RH = 77%]
Pressure (altimeter): 30.25 inches Hg (1024.5 mb)
[Sea-level pressure: 1024.4 mb]
Winds: from the NNW (340 degrees) at 18 MPH (16 knots; 8.3 m/s)
gusting to 26 MPH (23 knots; 12.0 m/s)
Visibility: 10 or more miles (16+ km)
Ceiling: 2900 feet AGL
Clouds: few clouds at 1900 feet AGL
broken clouds at 2900 feet AGL
Present Weather: no significant weather observed at this time
KSPG 172053Z 34016G23KT 10SM FEW019 BKN029 11/07 A3025 RMK AO2 SLP244 T01110072 53005

Conditions at: KSPG observed 17 January 2018  20:16 UTC
Temperature: 12.2°C (54°F)
Dewpoint: 8.3°C (47°F) [RH = 77%]
Pressure (altimeter): 30.24 inches Hg (1024.1 mb)
Winds: from the N (360 degrees) at 15 MPH (13 knots; 6.8 m/s)
gusting to 25 MPH (22 knots; 11.4 m/s)
Visibility: 10 or more miles (16+ km)
Ceiling: 2100 feet AGL
Clouds: scattered clouds at 1500 feet AGL
broken clouds at 2100 feet AGL
overcast cloud deck at 7000 feet AGL
Present Weather: no significant weather observed at this time
KSPG 172016Z 36013G22KT 10SM SCT015 BKN021 OVC070 12/08 A3024 RMK AO2 T01220083

Conditions at: KSPG observed 17 January 2018  19:53 UTC
Temperature: 11.7°C (53°F)
Dewpoint: 8.3°C (47°F) [RH = 80%]
Pressure (altimeter): 30.24 inches Hg (1024.1 mb)
[Sea-level pressure: 1023.9 mb]
Winds: from the N (350 degrees) at 15 MPH (13 knots; 6.8 m/s)
gusting to 24 MPH (21 knots; 10.9 m/s)
Visibility: 9 miles (14 km)
Ceiling: 1300 feet AGL
Clouds: overcast cloud deck at 1300 feet AGL
Present Weather: no significant weather observed at this time
KSPG 171953Z 35013G21KT 9SM OVC013 12/08 A3024 RMK AO2 SLP239 T01170083

Conditions at: KSPG observed 17 January 2018  19:37 UTC
Temperature: 11.7°C (53°F)
Dewpoint: 8.9°C (48°F) [RH = 83%]
Pressure (altimeter): 30.24 inches Hg (1024.1 mb)
Winds: from the N (350 degrees) at 17 MPH (15 knots; 7.8 m/s)
gusting to 25 MPH (22 knots; 11.4 m/s)
Visibility: 9 miles (14 km)
Ceiling: 1400 feet AGL
Clouds: broken clouds at 1400 feet AGL
Present Weather: no significant weather observed at this time
KSPG 171937Z 35015G22KT 9SM BKN014 12/09 A3024 RMK AO2 T01170089

Conditions at: KSPG observed 17 January 2018  18:53 UTC
Temperature: 12.8°C (55°F)
Dewpoint: 8.9°C (48°F) [RH = 77%]
Pressure (altimeter): 30.24 inches Hg (1024.1 mb)
[Sea-level pressure: 1023.8 mb]
Winds: from the N (350 degrees) at 20 MPH (17 knots; 8.8 m/s)
gusting to 29 MPH (25 knots; 13.0 m/s)
Visibility: 10 or more miles (16+ km)
Ceiling: 4600 feet AGL
Clouds: few clouds at 1400 feet AGL
broken clouds at 4600 feet AGL
Present Weather: no significant weather observed at this time
KSPG 171853Z 35017G25KT 10SM FEW014 BKN046 13/09 A3024 RMK AO2 SLP238 T01280089

Conditions at: KSPG observed 17 January 2018  17:53 UTC
Temperature: 17.2°C (63°F)
Dewpoint: 9.4°C (49°F) [RH = 60%]
Pressure (altimeter): 30.24 inches Hg (1024.1 mb)
[Sea-level pressure: 1023.9 mb]
Winds: from the NNW (330 degrees) at 13 MPH (11 knots; 5.7 m/s)
Visibility: 10 or more miles (16+ km)
Ceiling: at least 12,000 feet AGL
Clouds: sky clear below 12,000 feet AGL
Present Weather: no significant weather observed at this time
KSPG 171753Z 33011KT 10SM CLR 17/09 A3024 RMK AO2 SLP239 T01720094 10183 20111 58013

Conditions at: KSPG observed 17 January 2018  16:53 UTC
Temperature: 15.6°C (60°F)
Dewpoint: 11.1°C (52°F) [RH = 75%]
Pressure (altimeter): 30.26 inches Hg (1024.8 mb)
[Sea-level pressure: 1024.7 mb]
Winds: from the SE (130 degrees) at 6 MPH (5 knots; 2.6 m/s)
Visibility: 10 or more miles (16+ km)
Ceiling: at least 12,000 feet AGL
Clouds: sky clear below 12,000 feet AGL
Present Weather: no significant weather observed at this time
KSPG 171653Z 13005KT 10SM CLR 16/11 A3026 RMK AO2 SLP247 T01560111

Conditions at: KSPG observed 17 January 2018  15:53 UTC
Temperature: 15.6°C (60°F)
Dewpoint: 11.1°C (52°F) [RH = 75%]
Pressure (altimeter): 30.28 inches Hg (1025.5 mb)
[Sea-level pressure: 1025.3 mb]
Winds: calm
Visibility: 10 or more miles (16+ km)
Ceiling: at least 12,000 feet AGL
Clouds: sky clear below 12,000 feet AGL
Present Weather: no significant weather observed at this time
KSPG 171553Z 00000KT 10SM CLR 16/11 A3028 RMK AO2 SLP253 T01560111

Conditions at: KSPG observed 17 January 2018  14:53 UTC
Temperature: 13.9°C (57°F)
Dewpoint: 11.1°C (52°F) [RH = 83%]
Pressure (altimeter): 30.28 inches Hg (1025.5 mb)
[Sea-level pressure: 1025.2 mb]
Winds: from the E (90 degrees) at 3 MPH (3 knots; 1.6 m/s)
Visibility: 10 or more miles (16+ km)
Ceiling: at least 12,000 feet AGL
Clouds: sky clear below 12,000 feet AGL
Present Weather: no significant weather observed at this time
KSPG 171453Z 09003KT 10SM CLR 14/11 A3028 RMK AO2 SLP252 T01390111 52009

Conditions at: KSPG observed 17 January 2018  13:53 UTC
Temperature: 13.3°C (56°F)
Dewpoint: 11.1°C (52°F) [RH = 87%]
Pressure (altimeter): 30.27 inches Hg (1025.1 mb)
[Sea-level pressure: 1024.9 mb]
Winds: from the NNE (30 degrees) at 5 MPH (4 knots; 2.1 m/s)
Visibility: 10 or more miles (16+ km)
Ceiling: at least 12,000 feet AGL
Clouds: sky clear below 12,000 feet AGL
Present Weather: no significant weather observed at this time
KSPG 171353Z 03004KT 10SM CLR 13/11 A3027 RMK AO2 SLP249 T01330111

Conditions at: KSPG observed 17 January 2018  12:53 UTC
Temperature: 11.7°C (53°F)
Dewpoint: 10.6°C (51°F) [RH = 93%]
Pressure (altimeter): 30.26 inches Hg (1024.8 mb)
[Sea-level pressure: 1024.6 mb]
Winds: from the N (360 degrees) at 6 MPH (5 knots; 2.6 m/s)
Visibility: 7 miles (11 km)
Ceiling: at least 12,000 feet AGL
Clouds: sky clear below 12,000 feet AGL
Present Weather: no significant weather observed at this time
KSPG 171253Z 36005KT 7SM CLR 12/11 A3026 RMK AO2 SLP246 T01170106

Conditions at: KSPG observed 17 January 2018  11:53 UTC
Temperature: 11.7°C (53°F)
Dewpoint: 10.6°C (51°F) [RH = 93%]
Pressure (altimeter): 30.25 inches Hg (1024.5 mb)
[Sea-level pressure: 1024.3 mb]
Winds: from the N (360 degrees) at 7 MPH (6 knots; 3.1 m/s)
Visibility: 8 miles (13 km)
Ceiling: at least 12,000 feet AGL
Clouds: sky clear below 12,000 feet AGL
Present Weather: no significant weather observed at this time
KSPG 171153Z 36006KT 8SM CLR 12/11 A3025 RMK AO2 SLP243 T01170106 10139 20111 53009

Conditions at: KSPG observed 17 January 2018  10:53 UTC
Temperature: 11.1°C (52°F)
Dewpoint: 10.6°C (51°F) [RH = 97%]
Pressure (altimeter): 30.23 inches Hg (1023.8 mb)
[Sea-level pressure: 1023.7 mb]
Winds: from the N (360 degrees) at 6 MPH (5 knots; 2.6 m/s)
Visibility: 10 or more miles (16+ km)
Ceiling: at least 12,000 feet AGL
Clouds: sky clear below 12,000 feet AGL
Present Weather: automated observation with no human augmentation;
there may or may not be significant weather present at this time
KSPG 171053Z AUTO 36005KT 10SM CLR 11/11 A3023 RMK AO2 SLP237 T01110106

Conditions at: KSPG observed 17 January 2018  09:53 UTC
Temperature: 11.7°C (53°F)
Dewpoint: 10.0°C (50°F) [RH = 89%]
Pressure (altimeter): 30.23 inches Hg (1023.8 mb)
[Sea-level pressure: 1023.6 mb]
Winds: from the N (10 degrees) at 7 MPH (6 knots; 3.1 m/s)
Visibility: 10 or more miles (16+ km)
Ceiling: at least 12,000 feet AGL
Clouds: sky clear below 12,000 feet AGL
Present Weather: automated observation with no human augmentation;
there may or may not be significant weather present at this time
KSPG 170953Z AUTO 01006KT 10SM CLR 12/10 A3023 RMK AO2 SLP236 T01170100

Conditions at: KSPG observed 17 January 2018  08:53 UTC
Temperature: 12.8°C (55°F)
Dewpoint: 11.1°C (52°F) [RH = 89%]
Pressure (altimeter): 30.22 inches Hg (1023.5 mb)
[Sea-level pressure: 1023.4 mb]
Winds: from the N (350 degrees) at 7 MPH (6 knots; 3.1 m/s)
Visibility: 10 or more miles (16+ km)
Ceiling: at least 12,000 feet AGL
Clouds: sky clear below 12,000 feet AGL
Present Weather: automated observation with no human augmentation;
there may or may not be significant weather present at this time
KSPG 170853Z AUTO 35006KT 10SM CLR 13/11 A3022 RMK AO2 SLP234 T01280111 56008

Conditions at: KSPG observed 17 January 2018  07:53 UTC
Temperature: 12.8°C (55°F)
Dewpoint: 11.1°C (52°F) [RH = 89%]
Pressure (altimeter): 30.22 inches Hg (1023.5 mb)
[Sea-level pressure: 1023.4 mb]
Winds: from the NNE (30 degrees) at 3 MPH (3 knots; 1.6 m/s)
Visibility: 10 or more miles (16+ km)
Ceiling: at least 12,000 feet AGL
Clouds: sky clear below 12,000 feet AGL
Present Weather: automated observation with no human augmentation;
there may or may not be significant weather present at this time
KSPG 170753Z AUTO 03003KT 10SM CLR 13/11 A3022 RMK AO2 SLP234 T01280111

Conditions at: KSPG observed 17 January 2018  06:53 UTC
Temperature: 13.9°C (57°F)
Dewpoint: 11.7°C (53°F) [RH = 87%]
Pressure (altimeter): 30.23 inches Hg (1023.8 mb)
[Sea-level pressure: 1023.7 mb]
Winds: calm
Visibility: 10 or more miles (16+ km)
Ceiling: at least 12,000 feet AGL
Clouds: sky clear below 12,000 feet AGL
Present Weather: automated observation with no human augmentation;
there may or may not be significant weather present at this time
KSPG 170653Z AUTO 00000KT 10SM CLR 14/12 A3023 RMK AO2 SLP237 T01390117

Conditions at: KSPG observed 17 January 2018  05:53 UTC
Temperature: 13.9°C (57°F)
Dewpoint: 11.1°C (52°F) [RH = 83%]
Pressure (altimeter): 30.25 inches Hg (1024.5 mb)
[Sea-level pressure: 1024.2 mb]
Winds: calm
Visibility: 10 or more miles (16+ km)
Ceiling: at least 12,000 feet AGL
Clouds: sky clear below 12,000 feet AGL
Present Weather: automated observation with no human augmentation;
there may or may not be significant weather present at this time
KSPG 170553Z AUTO 00000KT 10SM CLR 14/11 A3025 RMK AO2 SLP242 T01390111 10172 20139 58009

Conditions at: KSPG observed 17 January 2018  04:53 UTC
Temperature: 14.4°C (58°F)
Dewpoint: 11.1°C (52°F) [RH = 81%]
Pressure (altimeter): 30.27 inches Hg (1025.1 mb)
[Sea-level pressure: 1024.8 mb]
Winds: calm
Visibility: 10 or more miles (16+ km)
Ceiling: at least 12,000 feet AGL
Clouds: sky clear below 12,000 feet AGL
Present Weather: automated observation with no human augmentation;
there may or may not be significant weather present at this time
KSPG 170453Z AUTO 00000KT 10SM CLR 14/11 A3027 RMK AO2 SLP248 T01440111 402170100

Conditions at: KSPG observed 17 January 2018  03:53 UTC
Temperature: 15.0°C (59°F)
Dewpoint: 11.7°C (53°F) [RH = 81%]
Pressure (altimeter): 30.28 inches Hg (1025.5 mb)
[Sea-level pressure: 1025.4 mb]
Winds: from the ENE (70 degrees) at 7 MPH (6 knots; 3.1 m/s)
Visibility: 10 or more miles (16+ km)
Ceiling: at least 12,000 feet AGL
Clouds: sky clear below 12,000 feet AGL
Present Weather: automated observation with no human augmentation;
there may or may not be significant weather present at this time
KSPG 170353Z AUTO 07006KT 10SM CLR 15/12 A3028 RMK AO2 SLP254 T01500117

Conditions at: KSPG observed 17 January 2018  02:53 UTC
Temperature: 15.0°C (59°F)
Dewpoint: 10.6°C (51°F) [RH = 75%]
Pressure (altimeter): 30.28 inches Hg (1025.5 mb)
[Sea-level pressure: 1025.2 mb]
Winds: from the NNE (20 degrees) at 6 MPH (5 knots; 2.6 m/s)
Visibility: 10 or more miles (16+ km)
Ceiling: at least 12,000 feet AGL
Clouds: sky clear below 12,000 feet AGL
Present Weather: automated observation with no human augmentation;
there may or may not be significant weather present at this time
KSPG 170253Z AUTO 02005KT 10SM CLR 15/11 A3028 RMK AO2 SLP252 T01500106 53004

Conditions at: KSPG observed 17 January 2018  01:53 UTC
Temperature: 15.6°C (60°F)
Dewpoint: 10.6°C (51°F) [RH = 72%]
Pressure (altimeter): 30.27 inches Hg (1025.1 mb)
[Sea-level pressure: 1025.1 mb]
Winds: from the NNE (20 degrees) at 6 MPH (5 knots; 2.6 m/s)
Visibility: 10 or more miles (16+ km)
Ceiling: at least 12,000 feet AGL
Clouds: sky clear below 12,000 feet AGL
Present Weather: automated observation with no human augmentation;
there may or may not be significant weather present at this time
KSPG 170153Z AUTO 02005KT 10SM CLR 16/11 A3027 RMK AO2 SLP251 T01560106

Conditions at: KSPG observed 17 January 2018  00:53 UTC
Temperature: 16.1°C (61°F)
Dewpoint: 10.0°C (50°F) [RH = 67%]
Pressure (altimeter): 30.26 inches Hg (1024.8 mb)
[Sea-level pressure: 1024.7 mb]
Winds: from the NNE (30 degrees) at 7 MPH (6 knots; 3.1 m/s)
Visibility: 10 or more miles (16+ km)
Ceiling: at least 12,000 feet AGL
Clouds: sky clear below 12,000 feet AGL
Present Weather: no significant weather observed at this time
KSPG 170053Z 03006KT 10SM CLR 16/10 A3026 RMK AO2 SLP247 T01610100

Conditions at: KSPG observed 16 January 2018  23:53 UTC
Temperature: 17.2°C (63°F)
Dewpoint: 9.4°C (49°F) [RH = 60%]
Pressure (altimeter): 30.26 inches Hg (1024.8 mb)
[Sea-level pressure: 1024.8 mb]
Winds: from the N (350 degrees) at 7 MPH (6 knots; 3.1 m/s)
Visibility: 10 or more miles (16+ km)
Ceiling: at least 12,000 feet AGL
Clouds: sky clear below 12,000 feet AGL
Present Weather: no significant weather observed at this time
KSPG 162353Z 35006KT 10SM CLR 17/09 A3026 RMK AO2 SLP248 T01720094 10217 20172 53002

Conditions at: KSPG observed 16 January 2018  22:53 UTC
Temperature: 18.3°C (65°F)
Dewpoint: 8.9°C (48°F) [RH = 54%]
Pressure (altimeter): 30.25 inches Hg (1024.5 mb)
[Sea-level pressure: 1024.4 mb]
Winds: from the NNW (340 degrees) at 8 MPH (7 knots; 3.6 m/s)
Visibility: 10 or more miles (16+ km)
Ceiling: at least 12,000 feet AGL
Clouds: sky clear below 12,000 feet AGL
Present Weather: no significant weather observed at this time
KSPG 162253Z 34007KT 10SM CLR 18/09 A3025 RMK AO2 SLP244 T01830089

Conditions at: KSPG observed 16 January 2018  21:53 UTC
Temperature: 20.0°C (68°F)
Dewpoint: 8.3°C (47°F) [RH = 47%]
Pressure (altimeter): 30.26 inches Hg (1024.8 mb)
[Sea-level pressure: 1024.5 mb]
Winds: from the NNE (30 degrees) at 6 MPH (5 knots; 2.6 m/s)
Visibility: 10 or more miles (16+ km)
Ceiling: at least 12,000 feet AGL
Clouds: sky clear below 12,000 feet AGL
Present Weather: no significant weather observed at this time
KSPG 162153Z 03005KT 10SM CLR 20/08 A3026 RMK AO2 SLP245 T02000083

Conditions at: KSPG observed 16 January 2018  20:53 UTC
Temperature: 20.6°C (69°F)
Dewpoint: 7.8°C (46°F) [RH = 44%]
Pressure (altimeter): 30.26 inches Hg (1024.8 mb)
[Sea-level pressure: 1024.6 mb]
Winds: from the SE (140 degrees) at 3 MPH (3 knots; 1.6 m/s)
Visibility: 10 or more miles (16+ km)
Ceiling: at least 12,000 feet AGL
Clouds: sky clear below 12,000 feet AGL
Present Weather: no significant weather observed at this time
KSPG 162053Z 14003KT 10SM CLR 21/08 A3026 RMK AO2 SLP246 T02060078 56020

Conditions at: KSPG observed 16 January 2018  19:53 UTC
Temperature: 20.6°C (69°F)
Dewpoint: 8.9°C (48°F) [RH = 47%]
Pressure (altimeter): 30.27 inches Hg (1025.1 mb)
[Sea-level pressure: 1024.8 mb]
Winds: calm
Visibility: 10 or more miles (16+ km)
Ceiling: at least 12,000 feet AGL
Clouds: sky clear below 12,000 feet AGL
Present Weather: no significant weather observed at this time
KSPG 161953Z 00000KT 10SM CLR 21/09 A3027 RMK AO2 SLP248 T02060089

Conditions at: KSPG observed 16 January 2018  18:53 UTC
Temperature: 18.9°C (66°F)
Dewpoint: 11.7°C (53°F) [RH = 63%]
Pressure (altimeter): 30.28 inches Hg (1025.5 mb)
[Sea-level pressure: 1025.3 mb]
Winds: from the ENE (60 degrees) at 6 MPH (5 knots; 2.6 m/s)
Visibility: 10 or more miles (16+ km)
Ceiling: at least 12,000 feet AGL
Clouds: sky clear below 12,000 feet AGL
Present Weather: no significant weather observed at this time
KSPG 161853Z 06005KT 10SM CLR 19/12 A3028 RMK AO2 SLP253 T01890117

Conditions at: KSPG observed 16 January 2018  17:53 UTC
Temperature: 18.3°C (65°F)
Dewpoint: 10.6°C (51°F) [RH = 61%]
Pressure (altimeter): 30.32 inches Hg (1026.8 mb)
[Sea-level pressure: 1026.6 mb]
Winds: from the ENE (60 degrees) at 7 MPH (6 knots; 3.1 m/s)
Visibility: 10 or more miles (16+ km)
Ceiling: at least 12,000 feet AGL
Clouds: few clouds at 6000 feet AGL
Present Weather: no significant weather observed at this time
KSPG 161753Z 06006KT 10SM FEW060 18/11 A3032 RMK AO2 SLP266 T01830106 10189 20111 58020

Conditions at: KSPG observed 16 January 2018  16:53 UTC
Temperature: 16.7°C (62°F)
Dewpoint: 11.1°C (52°F) [RH = 70%]
Pressure (altimeter): 30.35 inches Hg (1027.9 mb)
[Sea-level pressure: 1027.6 mb]
Winds: from the ENE (60 degrees) at 3 MPH (3 knots; 1.6 m/s)
Visibility: 10 or more miles (16+ km)
Ceiling: at least 12,000 feet AGL
Clouds: sky clear below 12,000 feet AGL
Present Weather: no significant weather observed at this time
KSPG 161653Z 06003KT 10SM CLR 17/11 A3035 RMK AO2 SLP276 T01670111

Conditions at: KSPG observed 16 January 2018  15:53 UTC
Temperature: 15.0°C (59°F)
Dewpoint: 10.0°C (50°F) [RH = 72%]
Pressure (altimeter): 30.37 inches Hg (1028.5 mb)
[Sea-level pressure: 1028.4 mb]
Winds: from the ENE (70 degrees) at 8 MPH (7 knots; 3.6 m/s)
Visibility: 10 or more miles (16+ km)
Ceiling: at least 12,000 feet AGL
Clouds: sky clear below 12,000 feet AGL
Present Weather: no significant weather observed at this time
KSPG 161553Z 07007KT 10SM CLR 15/10 A3037 RMK AO2 SLP284 T01500100

Conditions at: KSPG observed 16 January 2018  14:53 UTC
Temperature: 13.3°C (56°F)
Dewpoint: 9.4°C (49°F) [RH = 77%]
Pressure (altimeter): 30.38 inches Hg (1028.9 mb)
[Sea-level pressure: 1028.5 mb]
Winds: from the ENE (70 degrees) at 7 MPH (6 knots; 3.1 m/s)
Visibility: 10 or more miles (16+ km)
Ceiling: at least 12,000 feet AGL
Clouds: sky clear below 12,000 feet AGL
Present Weather: no significant weather observed at this time
KSPG 161453Z 07006KT 10SM CLR 13/09 A3038 RMK AO2 SLP285 T01330094 53013

Conditions at: KSPG observed 16 January 2018  13:53 UTC
Temperature: 12.2°C (54°F)
Dewpoint: 9.4°C (49°F) [RH = 83%]
Pressure (altimeter): 30.36 inches Hg (1028.2 mb)
[Sea-level pressure: 1027.9 mb]
Winds: from the ENE (60 degrees) at 12 MPH (10 knots; 5.2 m/s)
Visibility: 10 or more miles (16+ km)
Ceiling: at least 12,000 feet AGL
Clouds: sky clear below 12,000 feet AGL
Present Weather: no significant weather observed at this time
KSPG 161353Z 06010KT 10SM CLR 12/09 A3036 RMK AO2 SLP279 T01220094

Conditions at: KSPG observed 16 January 2018  12:53 UTC
Temperature: 11.1°C (52°F)
Dewpoint: 9.4°C (49°F) [RH = 89%]
Pressure (altimeter): 30.34 inches Hg (1027.5 mb)
[Sea-level pressure: 1027.4 mb]
Winds: from the ENE (60 degrees) at 13 MPH (11 knots; 5.7 m/s)
Visibility: 10 or more miles (16+ km)
Ceiling: at least 12,000 feet AGL
Clouds: sky clear below 12,000 feet AGL
Present Weather: no significant weather observed at this time
KSPG 161253Z 06011KT 10SM CLR 11/09 A3034 RMK AO2 SLP274 T01110094

Conditions at: KSPG observed 16 January 2018  11:53 UTC
Temperature: 11.1°C (52°F)
Dewpoint: 8.9°C (48°F) [RH = 86%]
Pressure (altimeter): 30.34 inches Hg (1027.5 mb)
[Sea-level pressure: 1027.3 mb]
Winds: from the ENE (60 degrees) at 13 MPH (11 knots; 5.7 m/s)
Visibility: 10 or more miles (16+ km)
Ceiling: at least 12,000 feet AGL
Clouds: sky clear below 12,000 feet AGL
Present Weather: no significant weather observed at this time
KSPG 161153Z 06011KT 10SM CLR 11/09 A3034 RMK AO2 SLP273 T01110089 10111 20100 53006

Conditions at: KSPG observed 16 January 2018  10:53 UTC
Temperature: 11.1°C (52°F)
Dewpoint: 8.3°C (47°F) [RH = 83%]
Pressure (altimeter): 30.33 inches Hg (1027.2 mb)
[Sea-level pressure: 1027.1 mb]
Winds: from the ENE (70 degrees) at 13 MPH (11 knots; 5.7 m/s)
Visibility: 10 or more miles (16+ km)
Ceiling: at least 12,000 feet AGL
Clouds: scattered clouds at 7000 feet AGL
Present Weather: automated observation with no human augmentation;
there may or may not be significant weather present at this time
KSPG 161053Z AUTO 07011KT 10SM SCT070 11/08 A3033 RMK AO2 SLP271 T01110083

Conditions at: KSPG observed 16 January 2018  09:53 UTC
Temperature: 11.1°C (52°F)
Dewpoint: 8.3°C (47°F) [RH = 83%]
Pressure (altimeter): 30.32 inches Hg (1026.8 mb)
[Sea-level pressure: 1026.6 mb]
Winds: from the NE (50 degrees) at 12 MPH (10 knots; 5.2 m/s)
Visibility: 10 or more miles (16+ km)
Ceiling: at least 12,000 feet AGL
Clouds: few clouds at 7000 feet AGL
Present Weather: automated observation with no human augmentation;
there may or may not be significant weather present at this time
KSPG 160953Z AUTO 05010KT 10SM FEW070 11/08 A3032 RMK AO2 SLP266 T01110083

Conditions at: KSPG observed 16 January 2018  08:53 UTC
Temperature: 10.6°C (51°F)
Dewpoint: 7.8°C (46°F) [RH = 83%]
Pressure (altimeter): 30.32 inches Hg (1026.8 mb)
[Sea-level pressure: 1026.6 mb]
Winds: from the NE (50 degrees) at 10 MPH (9 knots; 4.7 m/s)
Visibility: 10 or more miles (16+ km)
Ceiling: 6500 feet AGL
Clouds: broken clouds at 6500 feet AGL
Present Weather: automated observation with no human augmentation;
there may or may not be significant weather present at this time
KSPG 160853Z AUTO 05009KT 10SM BKN065 11/08 A3032 RMK AO2 SLP266 T01060078 56006

Conditions at: KSPG observed 16 January 2018  07:53 UTC
Temperature: 10.6°C (51°F)
Dewpoint: 7.8°C (46°F) [RH = 83%]
Pressure (altimeter): 30.32 inches Hg (1026.8 mb)
[Sea-level pressure: 1026.7 mb]
Winds: from the ENE (60 degrees) at 15 MPH (13 knots; 6.8 m/s)
Visibility: 10 or more miles (16+ km)
Ceiling: 6500 feet AGL
Clouds: broken clouds at 6500 feet AGL
Present Weather: automated observation with no human augmentation;
there may or may not be significant weather present at this time
KSPG 160753Z AUTO 06013KT 10SM BKN065 11/08 A3032 RMK AO2 SLP267 T01060078

Conditions at: KSPG observed 16 January 2018  06:53 UTC
Temperature: 10.6°C (51°F)
Dewpoint: 7.8°C (46°F) [RH = 83%]
Pressure (altimeter): 30.33 inches Hg (1027.2 mb)
[Sea-level pressure: 1026.8 mb]
Winds: from the ENE (60 degrees) at 13 MPH (11 knots; 5.7 m/s)
Visibility: 10 or more miles (16+ km)
Ceiling: at least 12,000 feet AGL
Clouds: scattered clouds at 6000 feet AGL
Present Weather: automated observation with no human augmentation;
there may or may not be significant weather present at this time
KSPG 160653Z AUTO 06011KT 10SM SCT060 11/08 A3033 RMK AO2 SLP268 T01060078

Conditions at: KSPG observed 16 January 2018  05:53 UTC
Temperature: 11.1°C (52°F)
Dewpoint: 7.2°C (45°F) [RH = 77%]
Pressure (altimeter): 30.34 inches Hg (1027.5 mb)
[Sea-level pressure: 1027.3 mb]
Winds: from the ENE (60 degrees) at 14 MPH (12 knots; 6.2 m/s)
Visibility: 10 or more miles (16+ km)
Ceiling: at least 12,000 feet AGL
Clouds: scattered clouds at 6000 feet AGL
Present Weather: automated observation with no human augmentation;
there may or may not be significant weather present at this time
KSPG 160553Z AUTO 06012KT 10SM SCT060 11/07 A3034 RMK AO2 SLP273 T01110072 10156 20111 58004

Conditions at: KSPG observed 16 January 2018  04:53 UTC
Temperature: 11.7°C (53°F)
Dewpoint: 6.7°C (44°F) [RH = 71%]
Pressure (altimeter): 30.35 inches Hg (1027.9 mb)
[Sea-level pressure: 1027.8 mb]
Winds: from the ENE (70 degrees) at 16 MPH (14 knots; 7.3 m/s)
Visibility: 10 or more miles (16+ km)
Ceiling: at least 12,000 feet AGL
Clouds: scattered clouds at 6000 feet AGL
Present Weather: automated observation with no human augmentation;
there may or may not be significant weather present at this time
KSPG 160453Z AUTO 07014KT 10SM SCT060 12/07 A3035 RMK AO2 SLP278 T01170067 401830083

Conditions at: KSPG observed 16 January 2018  03:53 UTC
Temperature: 12.2°C (54°F)
Dewpoint: 6.1°C (43°F) [RH = 66%]
Pressure (altimeter): 30.35 inches Hg (1027.9 mb)
[Sea-level pressure: 1027.8 mb]
Winds: from the ENE (70 degrees) at 17 MPH (15 knots; 7.8 m/s)
Visibility: 10 or more miles (16+ km)
Ceiling: at least 12,000 feet AGL
Clouds: sky clear below 12,000 feet AGL
Present Weather: automated observation with no human augmentation;
there may or may not be significant weather present at this time
KSPG 160353Z AUTO 07015KT 10SM CLR 12/06 A3035 RMK AO2 SLP278 T01220061

Conditions at: KSPG observed 16 January 2018  02:53 UTC
Temperature: 13.3°C (56°F)
Dewpoint: 7.2°C (45°F) [RH = 66%]
Pressure (altimeter): 30.35 inches Hg (1027.9 mb)
[Sea-level pressure: 1027.7 mb]
Winds: from the ENE (70 degrees) at 17 MPH (15 knots; 7.8 m/s)
Visibility: 10 or more miles (16+ km)
Ceiling: at least 12,000 feet AGL
Clouds: sky clear below 12,000 feet AGL
Present Weather: automated observation with no human augmentation;
there may or may not be significant weather present at this time
KSPG 160253Z AUTO 07015KT 10SM CLR 13/07 A3035 RMK AO2 SLP277 T01330072 51016

Conditions at: KSPG observed 16 January 2018  01:53 UTC
Temperature: 13.9°C (57°F)
Dewpoint: 8.3°C (47°F) [RH = 69%]
Pressure (altimeter): 30.34 inches Hg (1027.5 mb)
[Sea-level pressure: 1027.4 mb]
Winds: from the ENE (70 degrees) at 18 MPH (16 knots; 8.3 m/s)
Visibility: 10 or more miles (16+ km)
Ceiling: at least 12,000 feet AGL
Clouds: sky clear below 12,000 feet AGL
Present Weather: automated observation with no human augmentation;
there may or may not be significant weather present at this time
KSPG 160153Z AUTO 07016KT 10SM CLR 14/08 A3034 RMK AO2 SLP274 T01390083

Conditions at: KSPG observed 16 January 2018  00:53 UTC
Temperature: 15.0°C (59°F)
Dewpoint: 8.9°C (48°F) [RH = 67%]
Pressure (altimeter): 30.33 inches Hg (1027.2 mb)
[Sea-level pressure: 1026.8 mb]
Winds: from the ENE (70 degrees) at 17 MPH (15 knots; 7.8 m/s)
Visibility: 10 or more miles (16+ km)
Ceiling: at least 12,000 feet AGL
Clouds: sky clear below 12,000 feet AGL
Present Weather: no significant weather observed at this time
KSPG 160053Z 07015KT 10SM CLR 15/09 A3033 RMK AO2 SLP268 T01500089

Conditions at: KSPG observed 15 January 2018  23:53 UTC
Temperature: 15.6°C (60°F)
Dewpoint: 9.4°C (49°F) [RH = 67%]
Pressure (altimeter): 30.30 inches Hg (1026.2 mb)
[Sea-level pressure: 1026.1 mb]
Winds: from the ENE (60 degrees) at 14 MPH (12 knots; 6.2 m/s)
Visibility: 10 or more miles (16+ km)
Ceiling: at least 12,000 feet AGL
Clouds: sky clear below 12,000 feet AGL
Present Weather: no significant weather observed at this time
KSPG 152353Z 06012KT 10SM CLR 16/09 A3030 RMK AO2 SLP261 T01560094 10183 20150 53014

Conditions at: KSPG observed 15 January 2018  22:53 UTC
Temperature: 16.7°C (62°F)
Dewpoint: 8.9°C (48°F) [RH = 60%]
Pressure (altimeter): 30.28 inches Hg (1025.5 mb)
[Sea-level pressure: 1025.4 mb]
Winds: from the NE (40 degrees) at 8 MPH (7 knots; 3.6 m/s)
Visibility: 10 or more miles (16+ km)
Ceiling: at least 12,000 feet AGL
Clouds: sky clear below 12,000 feet AGL
Present Weather: no significant weather observed at this time
KSPG 152253Z 04007KT 10SM CLR 17/09 A3028 RMK AO2 SLP254 T01670089